Flight Track Log - Related Links

Times and Time Zones

All times are in EDT time to prevent confusion due to time zone crossing. See the SKW2965 flight status page for this flight to view local times or setup timezone preferences in your user account.

Time Position Orientation Groundspeed Altitude Reporting Facility
EDT Latitude Longitude Course Direction KTS MPH feet Rate Location/Type
Fri 09:13:25 AM 36.6000 -121.8833 345° North 154 177 1,600  Level Northern Cal TRACON
Fri 09:14:19 AM 36.6500 -121.9000 96° East 184 212 3,700 2,266 Climbing Northern Cal TRACON
Fri 09:16:33 AM 36.6381 -121.7681 124° Southeast 207 238 8,700 1,918 Climbing Oakland Center
Fri 09:17:33 AM 36.5925 -121.6847 125° Southeast 239 275 9,900 1,650 Climbing Oakland Center
Fri 09:18:33 AM 36.5408 -121.5914 125° Southeast 286 329 12,000 1,950 Climbing Oakland Center
Fri 09:19:33 AM 36.4892 -121.4981 126° Southeast 315 362 13,800 1,850 Climbing Oakland Center
Fri 09:20:33 AM 36.4333 -121.4019 125° Southeast 336 387 15,700 1,800 Climbing Oakland Center
Fri 09:21:33 AM 36.3772 -121.3036 126° Southeast 342 394 17,400 1,400 Climbing Oakland Center
Fri 09:22:33 AM 36.3192 -121.2028 124° Southeast 347 399 18,500 1,050 Climbing Oakland Center
Fri 09:23:33 AM 36.2608 -121.0972 138° Southeast 360 414 19,500 1,200 Climbing Oakland Center
Fri 09:24:33 AM 36.1797 -121.0069 137° Southeast 371 427 20,900 1,250 Climbing Oakland Center
Fri 09:25:33 AM 36.1025 -120.9169 114° Southeast 377 434 22,000 1,050 Climbing Oakland Center
Fri 09:26:33 AM 36.0606 -120.7989 96° East 382 440 23,000 1,000 Climbing Oakland Center
Fri 09:27:33 AM 36.0478 -120.6603 96° East 376 433 24,000 950 Climbing Oakland Center
Fri 09:28:33 AM 36.0347 -120.5192 96° East 392 451 24,900 900 Climbing Oakland Center
Fri 09:29:33 AM 36.0236 -120.3781 97° East 398 458 25,800 894 Climbing Oakland Center
Fri 09:30:54 AM 36.0044 -120.1825 94° East 430 495 27,000 851 Climbing Los Angeles Center
Fri 09:31:54 AM 35.9967 -120.0383 88° East 425 489 27,800 750 Climbing Los Angeles Center
Fri 09:32:54 AM 36.0011 -119.8950 100° East 425 489 28,500 650 Climbing Los Angeles Center
Fri 09:33:54 AM 35.9789 -119.7372 138° Southeast 415 478 29,100 600 Climbing Los Angeles Center
Fri 09:34:54 AM 35.8881 -119.6358 139° Southeast 402 463 29,700 650 Climbing Los Angeles Center
Fri 09:35:54 AM 35.7947 -119.5369 137° Southeast 413 475 30,400 650 Climbing Los Angeles Center
Fri 09:36:54 AM 35.7039 -119.4333 136° Southeast 433 498 31,000 550 Climbing Los Angeles Center
Fri 09:37:54 AM 35.6167 -119.3303 134° Southeast 440 506 31,500 450 Climbing Los Angeles Center
Fri 09:38:54 AM 35.5300 -119.2197 133° Southeast 440 506 31,900 450 Climbing Los Angeles Center
Fri 09:39:54 AM 35.4450 -119.1069 134° Southeast 445 512 32,400 500 Climbing Los Angeles Center
Fri 09:40:54 AM 35.3581 -118.9967 133° Southeast 450 518 32,900 300 Climbing Los Angeles Center
Fri 09:41:54 AM 35.2731 -118.8842 133° Southeast 450 518 33,000 50 Climbing Los Angeles Center
Fri 09:42:54 AM 35.1878 -118.7719 134° Southeast 450 518 33,000  Level Los Angeles Center
Fri 09:43:54 AM 35.1047 -118.6653 134° Southeast 445 512 33,000  Level Los Angeles Center
Fri 09:44:54 AM 35.0192 -118.5586 135° Southeast 445 512 33,000  Level Los Angeles Center
Fri 09:45:54 AM 34.9417 -118.4628 134° Southeast 445 512 33,000  Level Los Angeles Center
Fri 09:46:54 AM 34.8539 -118.3539 135° Southeast 445 512 33,000  Level Los Angeles Center
Fri 09:47:54 AM 34.7661 -118.2453 134° Southeast 445 512 33,000  Level Los Angeles Center
Fri 09:48:54 AM 34.6783 -118.1344 123° Southeast 445 512 33,000  Level Los Angeles Center
Fri 09:49:54 AM 34.6114 -118.0092 110° East 445 512 33,000  Level Los Angeles Center
Fri 09:50:54 AM 34.5658 -117.8592 110° East 451 519 33,000  Level Los Angeles Center
Fri 09:51:54 AM 34.5217 -117.7147 110° East 451 519 33,000  Level Los Angeles Center
Fri 09:52:54 AM 34.4778 -117.5678 109° East 456 525 33,000  Level Los Angeles Center
Fri 09:53:54 AM 34.4356 -117.4233 111° Southeast 456 525 33,000  Level Los Angeles Center
Fri 09:54:54 AM 34.3911 -117.2817 107° East 456 525 33,000  Level Los Angeles Center
Fri 09:55:54 AM 34.3547 -117.1378 111° Southeast 449 517 33,000  Level Los Angeles Center
Fri 09:56:54 AM 34.3100 -116.9939 111° Southeast 449 517 33,000  Level Los Angeles Center
Fri 09:57:54 AM 34.2631 -116.8425 114° Southeast 449 517 33,000  Level Los Angeles Center
Fri 09:58:54 AM 34.2156 -116.7142 111° Southeast 455 524 33,000  Level Los Angeles Center
Fri 09:59:54 AM 34.1703 -116.5731 109° East 455 524 33,000  Level Los Angeles Center
Fri 10:00:54 AM 34.1292 -116.4300 109° East 455 524 33,000  Level Los Angeles Center
Fri 10:01:54 AM 34.0897 -116.2892 111° Southeast 448 516 33,000  Level Los Angeles Center
Fri 10:02:54 AM 34.0397 -116.1339 111° Southeast 448 516 33,000  Level Los Angeles Center
Fri 10:03:54 AM 33.9917 -115.9833 111° Southeast 454 522 33,000  Level Los Angeles Center
Fri 10:04:54 AM 33.9456 -115.8358 111° Southeast 460 529 33,000  Level Los Angeles Center
Fri 10:05:54 AM 33.8969 -115.6833 112° Southeast 473 544 33,000  Level Los Angeles Center
Fri 10:06:54 AM 33.8461 -115.5283 111° Southeast 483 556 33,000  Level Los Angeles Center
Fri 10:07:54 AM 33.7975 -115.3764 112° Southeast 483 556 33,000  Level Los Angeles Center
Fri 10:08:54 AM 33.7464 -115.2219 111° Southeast 489 563 33,000  Level Los Angeles Center
Fri 10:09:54 AM 33.6969 -115.0675 108° East 494 568 33,000  Level Los Angeles Center
Fri 10:10:54 AM 33.6561 -114.9158 106° East 494 568 33,000  Level Los Angeles Center
Fri 10:11:54 AM 33.6189 -114.7592 106° East 483 556 33,000 -450 Level Los Angeles Center
Fri 10:12:54 AM 33.5814 -114.6003 105° East 478 550 32,100 -1,550 Descending Los Angeles Center
Fri 10:13:54 AM 33.5461 -114.4414 105° East 478 550 29,900 -2,120 Descending Los Angeles Center
Fri 10:15:24 AM 33.4969 -114.2281 107° East 483 556 26,800 -1,960 Descending Albuquerque Center
Fri 10:16:24 AM 33.4611 -114.0858 104° East 475 547 25,000 -1,250 Descending Albuquerque Center
Fri 10:17:24 AM 33.4314 -113.9467 102° East 451 519 24,300 -1,150 Descending Albuquerque Center
Fri 10:18:24 AM 33.4042 -113.7978 104° East 445 512 22,700 -1,650 Descending Albuquerque Center
Fri 10:19:24 AM 33.3761 -113.6589 102° East 433 498 21,000 -1,700 Descending Albuquerque Center
Fri 10:20:24 AM 33.3517 -113.5228 95° East 433 498 19,300 -1,700 Descending Albuquerque Center
Fri 10:21:24 AM 33.3419 -113.3853 99° East 427 491 17,600 -1,700 Descending Albuquerque Center
Fri 10:22:24 AM 33.3253 -113.2625 96° East 398 458 15,900 -1,750 Descending Albuquerque Center
Fri 10:23:24 AM 33.3144 -113.1425 98° East 375 432 14,100 -1,750 Descending Albuquerque Center
Fri 10:24:24 AM 33.3011 -113.0297 98° East 357 411 12,400 -1,700 Descending Albuquerque Center
Fri 10:25:24 AM 33.2892 -112.9247 94° East 335 386 10,700 -1,250 Descending Albuquerque Center
Fri 10:26:24 AM 33.2836 -112.8200 68° East 319 367 9,900 -400 Descending Albuquerque Center
Fri 10:27:24 AM 33.3128 -112.7325 64° Northeast 288 331 9,900 -100 Level Albuquerque Center
Fri 10:28:24 AM 33.3478 -112.6453 67° East 282 325 9,700 -810 Descending Albuquerque Center
Fri 10:30:44 AM 33.4167 -112.4500 77° East 249 287 7,200 -1,104 Descending Phoenix TRACON
Fri 10:31:45 AM 33.4333 -112.3667 90° East 238 274 6,000 -893 Descending Phoenix TRACON
Fri 10:32:45 AM 33.4333 -112.2833 90° East 221 254 5,400 -850 Descending Phoenix TRACON
Fri 10:33:45 AM 33.4333 -112.2333 90° East 189 217 4,300 -1,095 Descending Phoenix TRACON
Fri 10:34:51 AM 33.4333 -112.1667 90° East 185 213 3,100 -905 Descending Phoenix TRACON
Fri 10:35:51 AM 33.4333 -112.1000 90° East 156 180 2,400 -744 Descending Phoenix TRACON
Fri 10:36:52 AM 33.4333 -112.0500 90° East 144 166 1,600 -787 Descending Phoenix TRACON

Login

Don't have an account? Register now (free) for customized features, flight alerts, and more!